Terminal Aerodrome Forecast
Issued by NWS

Home | Current Version | Previous Version | Text Only | Print | Product List | Glossary Off
Versions: 1 2 3 4 5 6 7 8 9 10 11 12 13 14 15 16 17 18 19 20

000
FTUS43 KDLH 230520
TAFHIB
TAF
KHIB 230520Z 2306/2406 19007KT P6SM VCSH OVC080 WS020/24040KT
     FM231000 20006KT P6SM -SHRA BKN070
     FM231300 25007KT P6SM VCSH BKN080
     FM231800 28011KT P6SM VCSH BKN030
     FM232300 32014G22KT P6SM VCSH OVC025=

USA.gov is the U.S. government's official web portal to all federal, state and local government web resources and services.